sensor_id;sensor_type;location;lat;lon;timestamp;P1;durP1;ratioP1;P2;durP2;ratioP2
15096;SDS011;7649;52.084;7.478;2023-07-28T00:00:47;6.90;;;6.30;;
15096;SDS011;7649;52.084;7.478;2023-07-28T00:03:15;7.00;;;6.27;;
15096;SDS011;7649;52.084;7.478;2023-07-28T00:05:44;7.55;;;6.85;;
15096;SDS011;7649;52.084;7.478;2023-07-28T00:08:12;7.30;;;6.80;;
15096;SDS011;7649;52.084;7.478;2023-07-28T00:10:40;6.90;;;6.40;;
15096;SDS011;7649;52.084;7.478;2023-07-28T00:13:09;7.67;;;6.87;;
15096;SDS011;7649;52.084;7.478;2023-07-28T00:15:39;7.83;;;7.07;;
15096;SDS011;7649;52.084;7.478;2023-07-28T00:18:07;6.83;;;6.20;;
15096;SDS011;7649;52.084;7.478;2023-07-28T00:20:35;7.37;;;6.77;;
15096;SDS011;7649;52.084;7.478;2023-07-28T00:23:03;6.70;;;6.00;;
15096;SDS011;7649;52.084;7.478;2023-07-28T00:25:32;6.10;;;5.60;;
15096;SDS011;7649;52.084;7.478;2023-07-28T00:28:00;6.47;;;5.87;;
15096;SDS011;7649;52.084;7.478;2023-07-28T00:30:28;6.50;;;5.83;;
15096;SDS011;7649;52.084;7.478;2023-07-28T00:32:59;6.03;;;5.43;;
15096;SDS011;7649;52.084;7.478;2023-07-28T00:35:27;5.90;;;5.50;;
15096;SDS011;7649;52.084;7.478;2023-07-28T00:37:55;6.43;;;5.90;;
15096;SDS011;7649;52.084;7.478;2023-07-28T00:40:24;6.13;;;5.60;;
15096;SDS011;7649;52.084;7.478;2023-07-28T00:42:52;5.60;;;5.20;;
15096;SDS011;7649;52.084;7.478;2023-07-28T00:45:21;5.82;;;5.25;;
15096;SDS011;7649;52.084;7.478;2023-07-28T00:47:49;5.93;;;5.30;;
15096;SDS011;7649;52.084;7.478;2023-07-28T00:50:19;5.75;;;5.30;;
15096;SDS011;7649;52.084;7.478;2023-07-28T00:52:48;5.72;;;5.32;;
15096;SDS011;7649;52.084;7.478;2023-07-28T00:55:16;6.50;;;5.90;;
15096;SDS011;7649;52.084;7.478;2023-07-28T00:57:44;5.80;;;5.40;;
15096;SDS011;7649;52.084;7.478;2023-07-28T01:00:13;6.73;;;5.73;;
15096;SDS011;7649;52.084;7.478;2023-07-28T01:02:41;6.83;;;6.23;;
15096;SDS011;7649;52.084;7.478;2023-07-28T01:05:10;6.70;;;6.10;;
15096;SDS011;7649;52.084;7.478;2023-07-28T01:07:42;6.35;;;5.75;;
15096;SDS011;7649;52.084;7.478;2023-07-28T01:10:13;6.87;;;5.80;;
15096;SDS011;7649;52.084;7.478;2023-07-28T01:12:42;6.27;;;5.63;;
15096;SDS011;7649;52.084;7.478;2023-07-28T01:15:11;6.60;;;6.00;;
15096;SDS011;7649;52.084;7.478;2023-07-28T01:17:41;6.17;;;5.57;;
15096;SDS011;7649;52.084;7.478;2023-07-28T01:20:10;6.87;;;5.77;;
15096;SDS011;7649;52.084;7.478;2023-07-28T01:22:51;6.33;;;5.80;;
15096;SDS011;7649;52.084;7.478;2023-07-28T01:25:23;5.30;;;4.77;;
15096;SDS011;7649;52.084;7.478;2023-07-28T01:27:57;6.00;;;5.50;;
15096;SDS011;7649;52.084;7.478;2023-07-28T01:30:26;5.40;;;4.90;;
15096;SDS011;7649;52.084;7.478;2023-07-28T01:32:55;5.80;;;5.27;;
15096;SDS011;7649;52.084;7.478;2023-07-28T01:35:25;5.23;;;4.80;;
15096;SDS011;7649;52.084;7.478;2023-07-28T01:37:54;4.93;;;4.63;;
15096;SDS011;7649;52.084;7.478;2023-07-28T01:40:22;5.57;;;5.17;;
15096;SDS011;7649;52.084;7.478;2023-07-28T01:42:51;6.47;;;5.73;;
15096;SDS011;7649;52.084;7.478;2023-07-28T01:45:20;5.37;;;4.97;;
15096;SDS011;7649;52.084;7.478;2023-07-28T01:47:49;7.23;;;5.90;;
15096;SDS011;7649;52.084;7.478;2023-07-28T01:50:17;5.38;;;4.97;;
15096;SDS011;7649;52.084;7.478;2023-07-28T01:52:45;5.47;;;5.03;;
15096;SDS011;7649;52.084;7.478;2023-07-28T01:55:14;5.63;;;5.10;;
15096;SDS011;7649;52.084;7.478;2023-07-28T01:57:49;6.07;;;5.55;;
15096;SDS011;7649;52.084;7.478;2023-07-28T02:00:18;5.90;;;5.40;;
15096;SDS011;7649;52.084;7.478;2023-07-28T02:02:48;5.50;;;5.03;;
15096;SDS011;7649;52.084;7.478;2023-07-28T02:05:16;5.78;;;5.28;;
15096;SDS011;7649;52.084;7.478;2023-07-28T02:07:45;6.30;;;5.72;;
15096;SDS011;7649;52.084;7.478;2023-07-28T02:10:14;6.40;;;5.80;;
15096;SDS011;7649;52.084;7.478;2023-07-28T02:12:42;6.23;;;5.63;;
15096;SDS011;7649;52.084;7.478;2023-07-28T02:15:11;6.53;;;5.93;;
15096;SDS011;7649;52.084;7.478;2023-07-28T02:17:40;6.17;;;5.67;;
15096;SDS011;7649;52.084;7.478;2023-07-28T02:20:09;6.57;;;6.07;;
15096;SDS011;7649;52.084;7.478;2023-07-28T02:22:39;6.97;;;6.20;;
15096;SDS011;7649;52.084;7.478;2023-07-28T02:25:08;7.63;;;6.77;;
15096;SDS011;7649;52.084;7.478;2023-07-28T02:27:36;7.20;;;6.60;;
15096;SDS011;7649;52.084;7.478;2023-07-28T02:30:05;7.97;;;7.07;;
15096;SDS011;7649;52.084;7.478;2023-07-28T02:32:34;7.90;;;7.20;;
15096;SDS011;7649;52.084;7.478;2023-07-28T02:35:02;7.80;;;7.03;;
15096;SDS011;7649;52.084;7.478;2023-07-28T02:37:32;8.03;;;7.13;;
15096;SDS011;7649;52.084;7.478;2023-07-28T02:40:00;7.47;;;6.87;;
15096;SDS011;7649;52.084;7.478;2023-07-28T02:42:28;7.73;;;7.03;;
15096;SDS011;7649;52.084;7.478;2023-07-28T02:44:57;7.87;;;7.13;;
15096;SDS011;7649;52.084;7.478;2023-07-28T02:47:25;7.43;;;6.73;;
15096;SDS011;7649;52.084;7.478;2023-07-28T02:49:53;7.47;;;6.87;;
15096;SDS011;7649;52.084;7.478;2023-07-28T02:52:22;7.80;;;7.20;;
15096;SDS011;7649;52.084;7.478;2023-07-28T02:54:51;7.67;;;6.93;;
15096;SDS011;7649;52.084;7.478;2023-07-28T02:57:20;7.97;;;7.23;;
15096;SDS011;7649;52.084;7.478;2023-07-28T02:59:48;7.80;;;7.10;;
15096;SDS011;7649;52.084;7.478;2023-07-28T03:02:16;7.67;;;6.97;;
15096;SDS011;7649;52.084;7.478;2023-07-28T03:04:44;7.23;;;6.63;;
15096;SDS011;7649;52.084;7.478;2023-07-28T03:07:13;7.27;;;6.57;;
15096;SDS011;7649;52.084;7.478;2023-07-28T03:09:41;8.77;;;6.67;;
15096;SDS011;7649;52.084;7.478;2023-07-28T03:12:11;7.60;;;6.90;;
15096;SDS011;7649;52.084;7.478;2023-07-28T03:14:39;7.37;;;6.70;;
15096;SDS011;7649;52.084;7.478;2023-07-28T03:17:07;7.13;;;6.53;;
15096;SDS011;7649;52.084;7.478;2023-07-28T03:19:35;9.17;;;6.93;;
15096;SDS011;7649;52.084;7.478;2023-07-28T03:22:04;7.20;;;6.60;;
15096;SDS011;7649;52.084;7.478;2023-07-28T03:24:32;7.27;;;6.67;;
15096;SDS011;7649;52.084;7.478;2023-07-28T03:27:00;6.77;;;6.17;;
15096;SDS011;7649;52.084;7.478;2023-07-28T03:29:30;7.63;;;7.03;;
15096;SDS011;7649;52.084;7.478;2023-07-28T03:31:58;7.80;;;7.10;;
15096;SDS011;7649;52.084;7.478;2023-07-28T03:34:27;8.63;;;7.80;;
15096;SDS011;7649;52.084;7.478;2023-07-28T03:36:55;8.50;;;7.80;;
15096;SDS011;7649;52.084;7.478;2023-07-28T03:39:23;8.80;;;8.00;;
15096;SDS011;7649;52.084;7.478;2023-07-28T03:41:51;9.47;;;8.03;;
15096;SDS011;7649;52.084;7.478;2023-07-28T03:44:20;9.13;;;8.07;;
15096;SDS011;7649;52.084;7.478;2023-07-28T03:46:49;9.70;;;8.80;;
15096;SDS011;7649;52.084;7.478;2023-07-28T03:49:18;10.23;;;8.73;;
15096;SDS011;7649;52.084;7.478;2023-07-28T03:51:46;10.37;;;9.47;;
15096;SDS011;7649;52.084;7.478;2023-07-28T03:54:15;10.37;;;9.47;;
15096;SDS011;7649;52.084;7.478;2023-07-28T03:56:43;10.70;;;9.60;;
15096;SDS011;7649;52.084;7.478;2023-07-28T03:59:11;10.30;;;9.30;;
15096;SDS011;7649;52.084;7.478;2023-07-28T04:01:39;10.43;;;9.37;;
15096;SDS011;7649;52.084;7.478;2023-07-28T04:04:09;10.13;;;9.13;;
15096;SDS011;7649;52.084;7.478;2023-07-28T04:06:41;10.70;;;9.33;;
15096;SDS011;7649;52.084;7.478;2023-07-28T04:09:11;9.80;;;8.80;;
15096;SDS011;7649;52.084;7.478;2023-07-28T04:11:39;9.77;;;8.87;;
15096;SDS011;7649;52.084;7.478;2023-07-28T04:14:08;10.70;;;9.60;;
15096;SDS011;7649;52.084;7.478;2023-07-28T04:16:36;10.73;;;9.03;;
15096;SDS011;7649;52.084;7.478;2023-07-28T04:19:04;10.00;;;9.00;;
15096;SDS011;7649;52.084;7.478;2023-07-28T04:21:34;11.00;;;10.00;;
15096;SDS011;7649;52.084;7.478;2023-07-28T04:24:07;9.87;;;8.87;;
15096;SDS011;7649;52.084;7.478;2023-07-28T04:26:36;9.77;;;8.73;;
15096;SDS011;7649;52.084;7.478;2023-07-28T04:29:04;10.70;;;9.00;;
15096;SDS011;7649;52.084;7.478;2023-07-28T04:31:32;10.07;;;8.77;;
15096;SDS011;7649;52.084;7.478;2023-07-28T04:34:01;10.77;;;9.00;;
15096;SDS011;7649;52.084;7.478;2023-07-28T04:36:30;10.63;;;8.90;;
15096;SDS011;7649;52.084;7.478;2023-07-28T04:39:00;10.50;;;8.73;;
15096;SDS011;7649;52.084;7.478;2023-07-28T04:41:28;9.10;;;8.00;;
15096;SDS011;7649;52.084;7.478;2023-07-28T04:43:57;9.00;;;7.60;;
15096;SDS011;7649;52.084;7.478;2023-07-28T04:46:25;9.00;;;8.10;;
15096;SDS011;7649;52.084;7.478;2023-07-28T04:48:54;9.20;;;8.07;;
15096;SDS011;7649;52.084;7.478;2023-07-28T04:51:22;8.97;;;8.10;;
15096;SDS011;7649;52.084;7.478;2023-07-28T04:53:50;9.80;;;8.47;;
15096;SDS011;7649;52.084;7.478;2023-07-28T04:56:20;9.00;;;8.10;;
15096;SDS011;7649;52.084;7.478;2023-07-28T04:58:48;8.53;;;7.63;;
15096;SDS011;7649;52.084;7.478;2023-07-28T05:01:16;8.63;;;7.90;;
15096;SDS011;7649;52.084;7.478;2023-07-28T05:03:45;8.93;;;8.10;;
15096;SDS011;7649;52.084;7.478;2023-07-28T05:06:13;11.17;;;7.90;;
15096;SDS011;7649;52.084;7.478;2023-07-28T05:08:41;9.00;;;8.20;;
15096;SDS011;7649;52.084;7.478;2023-07-28T05:11:10;9.07;;;8.23;;
15096;SDS011;7649;52.084;7.478;2023-07-28T05:13:39;9.53;;;8.40;;
15096;SDS011;7649;52.084;7.478;2023-07-28T05:16:08;9.70;;;8.40;;
15096;SDS011;7649;52.084;7.478;2023-07-28T05:18:36;9.60;;;8.60;;
15096;SDS011;7649;52.084;7.478;2023-07-28T05:21:04;9.80;;;8.20;;
15096;SDS011;7649;52.084;7.478;2023-07-28T05:23:32;10.27;;;8.23;;
15096;SDS011;7649;52.084;7.478;2023-07-28T05:26:01;9.80;;;8.25;;
15096;SDS011;7649;52.084;7.478;2023-07-28T05:28:31;8.93;;;8.05;;
15096;SDS011;7649;52.084;7.478;2023-07-28T05:31:04;10.95;;;7.97;;
15096;SDS011;7649;52.084;7.478;2023-07-28T05:33:32;9.32;;;8.18;;
15096;SDS011;7649;52.084;7.478;2023-07-28T05:36:01;8.55;;;7.68;;
15096;SDS011;7649;52.084;7.478;2023-07-28T05:38:31;8.60;;;7.82;;
15096;SDS011;7649;52.084;7.478;2023-07-28T05:41:00;9.50;;;7.60;;
15096;SDS011;7649;52.084;7.478;2023-07-28T05:43:29;8.65;;;7.85;;
15096;SDS011;7649;52.084;7.478;2023-07-28T05:45:59;9.20;;;8.30;;
15096;SDS011;7649;52.084;7.478;2023-07-28T05:48:29;10.60;;;8.60;;
15096;SDS011;7649;52.084;7.478;2023-07-28T05:50:57;10.10;;;8.07;;
15096;SDS011;7649;52.084;7.478;2023-07-28T05:53:25;9.77;;;8.77;;
15096;SDS011;7649;52.084;7.478;2023-07-28T05:55:54;9.50;;;8.50;;
15096;SDS011;7649;52.084;7.478;2023-07-28T05:58:22;10.48;;;8.80;;
15096;SDS011;7649;52.084;7.478;2023-07-28T06:00:50;9.65;;;8.65;;
15096;SDS011;7649;52.084;7.478;2023-07-28T06:03:19;9.82;;;8.88;;
15096;SDS011;7649;52.084;7.478;2023-07-28T06:05:49;9.27;;;8.45;;
15096;SDS011;7649;52.084;7.478;2023-07-28T06:08:17;10.13;;;8.77;;
15096;SDS011;7649;52.084;7.478;2023-07-28T06:10:46;9.68;;;8.68;;
15096;SDS011;7649;52.084;7.478;2023-07-28T06:13:14;9.70;;;8.70;;
15096;SDS011;7649;52.084;7.478;2023-07-28T06:15:42;9.63;;;8.60;;
15096;SDS011;7649;52.084;7.478;2023-07-28T06:18:11;9.05;;;8.10;;
15096;SDS011;7649;52.084;7.478;2023-07-28T06:20:41;9.82;;;8.73;;
15096;SDS011;7649;52.084;7.478;2023-07-28T06:23:11;8.93;;;8.13;;
15096;SDS011;7649;52.084;7.478;2023-07-28T06:25:39;9.15;;;8.25;;
15096;SDS011;7649;52.084;7.478;2023-07-28T06:28:10;9.13;;;8.20;;
15096;SDS011;7649;52.084;7.478;2023-07-28T06:30:38;8.73;;;7.82;;
15096;SDS011;7649;52.084;7.478;2023-07-28T06:33:07;9.70;;;8.10;;
15096;SDS011;7649;52.084;7.478;2023-07-28T06:35:35;8.55;;;7.75;;
15096;SDS011;7649;52.084;7.478;2023-07-28T06:38:04;8.77;;;7.90;;
15096;SDS011;7649;52.084;7.478;2023-07-28T06:40:33;9.18;;;7.85;;
15096;SDS011;7649;52.084;7.478;2023-07-28T06:43:02;9.85;;;8.13;;
15096;SDS011;7649;52.084;7.478;2023-07-28T06:45:30;8.63;;;7.82;;
15096;SDS011;7649;52.084;7.478;2023-07-28T06:47:58;9.02;;;8.23;;
15096;SDS011;7649;52.084;7.478;2023-07-28T06:50:27;8.27;;;7.50;;
15096;SDS011;7649;52.084;7.478;2023-07-28T06:52:55;8.70;;;8.00;;
15096;SDS011;7649;52.084;7.478;2023-07-28T06:55:23;7.82;;;7.10;;
15096;SDS011;7649;52.084;7.478;2023-07-28T06:57:53;8.27;;;7.57;;
15096;SDS011;7649;52.084;7.478;2023-07-28T07:00:21;8.15;;;7.45;;
15096;SDS011;7649;52.084;7.478;2023-07-28T07:02:50;8.13;;;7.43;;
15096;SDS011;7649;52.084;7.478;2023-07-28T07:05:18;7.97;;;7.28;;
15096;SDS011;7649;52.084;7.478;2023-07-28T07:07:49;8.35;;;7.55;;
15096;SDS011;7649;52.084;7.478;2023-07-28T07:10:20;8.95;;;8.13;;
15096;SDS011;7649;52.084;7.478;2023-07-28T07:12:49;9.75;;;8.55;;
15096;SDS011;7649;52.084;7.478;2023-07-28T07:15:18;8.95;;;8.07;;
15096;SDS011;7649;52.084;7.478;2023-07-28T07:17:47;9.30;;;8.30;;
15096;SDS011;7649;52.084;7.478;2023-07-28T07:20:15;10.13;;;8.65;;
15096;SDS011;7649;52.084;7.478;2023-07-28T07:22:43;10.02;;;8.93;;
15096;SDS011;7649;52.084;7.478;2023-07-28T07:25:12;10.25;;;8.80;;
15096;SDS011;7649;52.084;7.478;2023-07-28T07:27:40;9.88;;;8.82;;
15096;SDS011;7649;52.084;7.478;2023-07-28T07:30:09;11.23;;;10.02;;
15096;SDS011;7649;52.084;7.478;2023-07-28T07:32:38;10.25;;;9.18;;
15096;SDS011;7649;52.084;7.478;2023-07-28T07:35:07;12.32;;;9.43;;
15096;SDS011;7649;52.084;7.478;2023-07-28T07:37:36;12.18;;;10.43;;
15096;SDS011;7649;52.084;7.478;2023-07-28T07:40:05;11.02;;;9.93;;
15096;SDS011;7649;52.084;7.478;2023-07-28T07:42:40;9.45;;;8.52;;
15096;SDS011;7649;52.084;7.478;2023-07-28T07:45:09;9.48;;;8.52;;
15096;SDS011;7649;52.084;7.478;2023-07-28T07:47:39;9.93;;;8.55;;
15096;SDS011;7649;52.084;7.478;2023-07-28T07:50:07;13.70;;;8.65;;
15096;SDS011;7649;52.084;7.478;2023-07-28T07:52:36;11.02;;;8.48;;
15096;SDS011;7649;52.084;7.478;2023-07-28T07:55:08;11.38;;;8.85;;
15096;SDS011;7649;52.084;7.478;2023-07-28T07:57:37;10.43;;;8.90;;
15096;SDS011;7649;52.084;7.478;2023-07-28T08:00:06;11.20;;;9.52;;
15096;SDS011;7649;52.084;7.478;2023-07-28T08:02:35;10.35;;;9.35;;
15096;SDS011;7649;52.084;7.478;2023-07-28T08:05:05;11.68;;;10.45;;
15096;SDS011;7649;52.084;7.478;2023-07-28T08:07:33;11.57;;;9.27;;
15096;SDS011;7649;52.084;7.478;2023-07-28T08:10:02;11.30;;;10.05;;
15096;SDS011;7649;52.084;7.478;2023-07-28T08:12:30;13.25;;;10.65;;
15096;SDS011;7649;52.084;7.478;2023-07-28T08:14:59;10.10;;;9.10;;
15096;SDS011;7649;52.084;7.478;2023-07-28T08:17:27;14.55;;;11.20;;
15096;SDS011;7649;52.084;7.478;2023-07-28T08:19:56;16.48;;;11.27;;
15096;SDS011;7649;52.084;7.478;2023-07-28T08:22:25;12.13;;;10.77;;
15096;SDS011;7649;52.084;7.478;2023-07-28T08:24:54;16.55;;;10.85;;
15096;SDS011;7649;52.084;7.478;2023-07-28T08:27:22;16.08;;;11.65;;
15096;SDS011;7649;52.084;7.478;2023-07-28T08:29:51;15.70;;;11.10;;
15096;SDS011;7649;52.084;7.478;2023-07-28T08:32:19;12.93;;;11.43;;
15096;SDS011;7649;52.084;7.478;2023-07-28T08:34:48;14.13;;;12.23;;
15096;SDS011;7649;52.084;7.478;2023-07-28T08:37:16;14.45;;;11.75;;
15096;SDS011;7649;52.084;7.478;2023-07-28T08:39:46;12.77;;;11.18;;
15096;SDS011;7649;52.084;7.478;2023-07-28T08:42:14;14.77;;;11.35;;
15096;SDS011;7649;52.084;7.478;2023-07-28T08:44:42;14.45;;;11.45;;
15096;SDS011;7649;52.084;7.478;2023-07-28T08:47:14;16.10;;;12.25;;
15096;SDS011;7649;52.084;7.478;2023-07-28T08:49:43;14.93;;;11.95;;
15096;SDS011;7649;52.084;7.478;2023-07-28T08:52:14;14.80;;;11.82;;
15096;SDS011;7649;52.084;7.478;2023-07-28T08:54:44;13.10;;;10.63;;
15096;SDS011;7649;52.084;7.478;2023-07-28T08:57:14;13.82;;;10.82;;
15096;SDS011;7649;52.084;7.478;2023-07-28T08:59:42;17.08;;;12.32;;
15096;SDS011;7649;52.084;7.478;2023-07-28T09:02:14;13.30;;;11.88;;
15096;SDS011;7649;52.084;7.478;2023-07-28T09:04:42;14.20;;;12.23;;
15096;SDS011;7649;52.084;7.478;2023-07-28T09:07:11;14.45;;;11.23;;
15096;SDS011;7649;52.084;7.478;2023-07-28T09:09:40;13.20;;;11.63;;
15096;SDS011;7649;52.084;7.478;2023-07-28T09:12:09;14.30;;;11.80;;
15096;SDS011;7649;52.084;7.478;2023-07-28T09:14:38;12.93;;;11.50;;
15096;SDS011;7649;52.084;7.478;2023-07-28T09:17:07;15.85;;;11.23;;
15096;SDS011;7649;52.084;7.478;2023-07-28T09:22:21;12.45;;;10.65;;
15096;SDS011;7649;52.084;7.478;2023-07-28T09:24:50;13.45;;;11.00;;
15096;SDS011;7649;52.084;7.478;2023-07-28T09:27:19;13.48;;;10.98;;
15096;SDS011;7649;52.084;7.478;2023-07-28T09:29:50;11.20;;;10.10;;
15096;SDS011;7649;52.084;7.478;2023-07-28T09:32:26;12.10;;;10.90;;
15096;SDS011;7649;52.084;7.478;2023-07-28T09:35:06;11.70;;;10.43;;
15096;SDS011;7649;52.084;7.478;2023-07-28T09:37:36;13.38;;;10.93;;
15096;SDS011;7649;52.084;7.478;2023-07-28T09:40:06;13.27;;;11.75;;
15096;SDS011;7649;52.084;7.478;2023-07-28T09:42:38;11.57;;;10.32;;
15096;SDS011;7649;52.084;7.478;2023-07-28T09:45:08;12.40;;;11.20;;
15096;SDS011;7649;52.084;7.478;2023-07-28T09:47:52;11.68;;;10.55;;
15096;SDS011;7649;52.084;7.478;2023-07-28T09:50:24;11.95;;;10.75;;
15096;SDS011;7649;52.084;7.478;2023-07-28T09:52:56;12.23;;;10.95;;
15096;SDS011;7649;52.084;7.478;2023-07-28T09:55:26;12.25;;;11.07;;
15096;SDS011;7649;52.084;7.478;2023-07-28T09:57:56;11.65;;;10.45;;
15096;SDS011;7649;52.084;7.478;2023-07-28T10:00:27;10.32;;;9.32;;
15096;SDS011;7649;52.084;7.478;2023-07-28T10:02:56;11.80;;;10.70;;
15096;SDS011;7649;52.084;7.478;2023-07-28T10:05:25;11.25;;;10.27;;
15096;SDS011;7649;52.084;7.478;2023-07-28T10:07:54;11.13;;;10.13;;
15096;SDS011;7649;52.084;7.478;2023-07-28T10:10:23;13.93;;;10.60;;
15096;SDS011;7649;52.084;7.478;2023-07-28T10:12:54;12.20;;;11.10;;
15096;SDS011;7649;52.084;7.478;2023-07-28T10:15:28;12.35;;;11.15;;
15096;SDS011;7649;52.084;7.478;2023-07-28T10:17:58;12.63;;;10.82;;
15096;SDS011;7649;52.084;7.478;2023-07-28T10:20:31;12.63;;;11.45;;
15096;SDS011;7649;52.084;7.478;2023-07-28T10:23:03;11.98;;;10.70;;
15096;SDS011;7649;52.084;7.478;2023-07-28T10:25:36;12.32;;;11.02;;
15096;SDS011;7649;52.084;7.478;2023-07-28T10:28:05;11.25;;;10.15;;
15096;SDS011;7649;52.084;7.478;2023-07-28T10:30:37;11.32;;;10.32;;
15096;SDS011;7649;52.084;7.478;2023-07-28T10:33:07;12.90;;;11.27;;
15096;SDS011;7649;52.084;7.478;2023-07-28T10:35:54;11.27;;;10.15;;
15096;SDS011;7649;52.084;7.478;2023-07-28T10:38:29;12.38;;;11.15;;
15096;SDS011;7649;52.084;7.478;2023-07-28T10:41:11;12.45;;;11.20;;
15096;SDS011;7649;52.084;7.478;2023-07-28T10:43:40;10.95;;;9.85;;
15096;SDS011;7649;52.084;7.478;2023-07-28T10:46:09;10.98;;;9.93;;
15096;SDS011;7649;52.084;7.478;2023-07-28T10:48:42;11.77;;;10.68;;
15096;SDS011;7649;52.084;7.478;2023-07-28T10:51:11;12.20;;;10.90;;
15096;SDS011;7649;52.084;7.478;2023-07-28T10:53:39;10.90;;;9.80;;
15096;SDS011;7649;52.084;7.478;2023-07-28T10:56:07;11.15;;;10.07;;
15096;SDS011;7649;52.084;7.478;2023-07-28T10:58:37;10.90;;;9.93;;
15096;SDS011;7649;52.084;7.478;2023-07-28T11:01:06;11.75;;;10.70;;
15096;SDS011;7649;52.084;7.478;2023-07-28T11:03:35;11.65;;;10.00;;
15096;SDS011;7649;52.084;7.478;2023-07-28T11:06:05;10.30;;;9.40;;
15096;SDS011;7649;52.084;7.478;2023-07-28T11:08:33;12.25;;;11.10;;
15096;SDS011;7649;52.084;7.478;2023-07-28T11:11:03;12.90;;;10.60;;
15096;SDS011;7649;52.084;7.478;2023-07-28T11:13:32;11.38;;;10.27;;
15096;SDS011;7649;52.084;7.478;2023-07-28T11:16:07;10.45;;;9.50;;
15096;SDS011;7649;52.084;7.478;2023-07-28T11:18:37;10.82;;;9.70;;
15096;SDS011;7649;52.084;7.478;2023-07-28T11:21:07;11.48;;;10.27;;
15096;SDS011;7649;52.084;7.478;2023-07-28T11:23:35;12.57;;;10.27;;
15096;SDS011;7649;52.084;7.478;2023-07-28T11:26:04;10.05;;;9.15;;
15096;SDS011;7649;52.084;7.478;2023-07-28T11:28:37;10.13;;;9.23;;
15096;SDS011;7649;52.084;7.478;2023-07-28T11:31:06;9.98;;;8.90;;
15096;SDS011;7649;52.084;7.478;2023-07-28T11:33:36;11.57;;;10.38;;
15096;SDS011;7649;52.084;7.478;2023-07-28T11:36:04;10.75;;;9.65;;
15096;SDS011;7649;52.084;7.478;2023-07-28T11:38:34;13.52;;;9.88;;
15096;SDS011;7649;52.084;7.478;2023-07-28T11:41:03;10.75;;;9.73;;
15096;SDS011;7649;52.084;7.478;2023-07-28T11:43:32;10.60;;;9.60;;
15096;SDS011;7649;52.084;7.478;2023-07-28T11:46:00;10.07;;;9.02;;
15096;SDS011;7649;52.084;7.478;2023-07-28T11:48:29;11.30;;;9.70;;
15096;SDS011;7649;52.084;7.478;2023-07-28T11:50:58;10.27;;;9.27;;
15096;SDS011;7649;52.084;7.478;2023-07-28T11:53:27;11.10;;;10.00;;
15096;SDS011;7649;52.084;7.478;2023-07-28T11:56:01;10.50;;;9.50;;
15096;SDS011;7649;52.084;7.478;2023-07-28T11:58:30;9.65;;;8.70;;
15096;SDS011;7649;52.084;7.478;2023-07-28T12:00:58;10.55;;;9.60;;
15096;SDS011;7649;52.084;7.478;2023-07-28T12:03:29;9.95;;;9.05;;
15096;SDS011;7649;52.084;7.478;2023-07-28T12:05:58;11.15;;;9.85;;
15096;SDS011;7649;52.084;7.478;2023-07-28T12:08:33;10.90;;;9.82;;
15096;SDS011;7649;52.084;7.478;2023-07-28T12:11:03;10.20;;;9.20;;
15096;SDS011;7649;52.084;7.478;2023-07-28T12:13:46;10.20;;;9.27;;
15096;SDS011;7649;52.084;7.478;2023-07-28T12:19:19;10.07;;;9.10;;
15096;SDS011;7649;52.084;7.478;2023-07-28T12:21:48;9.10;;;8.30;;
15096;SDS011;7649;52.084;7.478;2023-07-28T12:24:16;10.13;;;9.20;;
15096;SDS011;7649;52.084;7.478;2023-07-28T12:26:46;10.60;;;9.02;;
15096;SDS011;7649;52.084;7.478;2023-07-28T12:29:15;10.05;;;9.00;;
15096;SDS011;7649;52.084;7.478;2023-07-28T12:31:56;10.40;;;8.98;;
15096;SDS011;7649;52.084;7.478;2023-07-28T12:34:28;8.68;;;7.97;;
15096;SDS011;7649;52.084;7.478;2023-07-28T12:37:10;15.00;;;8.35;;
15096;SDS011;7649;52.084;7.478;2023-07-28T12:39:39;8.77;;;7.88;;
15096;SDS011;7649;52.084;7.478;2023-07-28T12:42:11;8.27;;;7.47;;
15096;SDS011;7649;52.084;7.478;2023-07-28T12:44:45;7.93;;;7.07;;
15096;SDS011;7649;52.084;7.478;2023-07-28T12:47:17;8.20;;;7.40;;
15096;SDS011;7649;52.084;7.478;2023-07-28T12:49:45;7.40;;;6.80;;
15096;SDS011;7649;52.084;7.478;2023-07-28T12:52:16;6.78;;;6.20;;
15096;SDS011;7649;52.084;7.478;2023-07-28T12:54:45;7.20;;;6.20;;
15096;SDS011;7649;52.084;7.478;2023-07-28T12:57:15;7.00;;;6.38;;
15096;SDS011;7649;52.084;7.478;2023-07-28T12:59:44;6.50;;;5.90;;
15096;SDS011;7649;52.084;7.478;2023-07-28T13:02:16;5.97;;;5.47;;
15096;SDS011;7649;52.084;7.478;2023-07-28T13:04:44;6.28;;;5.70;;
15096;SDS011;7649;52.084;7.478;2023-07-28T13:07:13;6.60;;;5.60;;
15096;SDS011;7649;52.084;7.478;2023-07-28T13:09:44;6.78;;;6.18;;
15096;SDS011;7649;52.084;7.478;2023-07-28T13:12:13;6.50;;;5.95;;
15096;SDS011;7649;52.084;7.478;2023-07-28T13:14:45;7.70;;;5.75;;
15096;SDS011;7649;52.084;7.478;2023-07-28T13:17:13;7.57;;;6.95;;
15096;SDS011;7649;52.084;7.478;2023-07-28T13:19:42;7.32;;;6.72;;
15096;SDS011;7649;52.084;7.478;2023-07-28T13:22:11;6.93;;;6.25;;
15096;SDS011;7649;52.084;7.478;2023-07-28T13:24:39;5.88;;;5.38;;
15096;SDS011;7649;52.084;7.478;2023-07-28T13:27:07;5.95;;;5.38;;
15096;SDS011;7649;52.084;7.478;2023-07-28T13:29:36;6.38;;;5.88;;
15096;SDS011;7649;52.084;7.478;2023-07-28T13:32:16;6.22;;;5.72;;
15096;SDS011;7649;52.084;7.478;2023-07-28T13:34:45;5.57;;;5.05;;
15096;SDS011;7649;52.084;7.478;2023-07-28T13:37:13;5.43;;;4.93;;
15096;SDS011;7649;52.084;7.478;2023-07-28T13:39:41;3.80;;;3.50;;
15096;SDS011;7649;52.084;7.478;2023-07-28T13:42:10;4.10;;;3.35;;
15096;SDS011;7649;52.084;7.478;2023-07-28T13:44:41;3.80;;;3.50;;
15096;SDS011;7649;52.084;7.478;2023-07-28T13:47:24;3.85;;;3.55;;
15096;SDS011;7649;52.084;7.478;2023-07-28T13:49:53;4.20;;;3.90;;
15096;SDS011;7649;52.084;7.478;2023-07-28T13:52:21;4.95;;;3.85;;
15096;SDS011;7649;52.084;7.478;2023-07-28T13:54:49;4.50;;;4.10;;
15096;SDS011;7649;52.084;7.478;2023-07-28T13:57:20;3.97;;;3.67;;
15096;SDS011;7649;52.084;7.478;2023-07-28T13:59:49;4.80;;;4.15;;
15096;SDS011;7649;52.084;7.478;2023-07-28T14:02:17;3.78;;;3.42;;
15096;SDS011;7649;52.084;7.478;2023-07-28T14:04:47;3.80;;;3.20;;
15096;SDS011;7649;52.084;7.478;2023-07-28T14:07:15;3.40;;;2.55;;
15096;SDS011;7649;52.084;7.478;2023-07-28T14:09:44;4.03;;;2.63;;
15096;SDS011;7649;52.084;7.478;2023-07-28T14:12:12;3.00;;;2.80;;
15096;SDS011;7649;52.084;7.478;2023-07-28T14:14:40;3.25;;;3.05;;
15096;SDS011;7649;52.084;7.478;2023-07-28T14:17:08;3.10;;;2.83;;
15096;SDS011;7649;52.084;7.478;2023-07-28T14:19:37;4.47;;;3.10;;
15096;SDS011;7649;52.084;7.478;2023-07-28T14:22:07;3.17;;;2.97;;
15096;SDS011;7649;52.084;7.478;2023-07-28T14:24:36;5.53;;;2.92;;
15096;SDS011;7649;52.084;7.478;2023-07-28T14:27:05;3.00;;;2.80;;
15096;SDS011;7649;52.084;7.478;2023-07-28T14:29:33;2.92;;;2.70;;
15096;SDS011;7649;52.084;7.478;2023-07-28T14:32:04;2.65;;;2.50;;
15096;SDS011;7649;52.084;7.478;2023-07-28T14:34:39;2.78;;;2.60;;
15096;SDS011;7649;52.084;7.478;2023-07-28T14:37:09;2.55;;;2.45;;
15096;SDS011;7649;52.084;7.478;2023-07-28T14:39:37;2.40;;;2.20;;
15096;SDS011;7649;52.084;7.478;2023-07-28T14:42:06;3.55;;;2.75;;
15096;SDS011;7649;52.084;7.478;2023-07-28T14:44:35;2.33;;;2.22;;
15096;SDS011;7649;52.084;7.478;2023-07-28T14:47:03;2.25;;;2.08;;
15096;SDS011;7649;52.084;7.478;2023-07-28T14:49:32;2.53;;;2.33;;
15096;SDS011;7649;52.084;7.478;2023-07-28T14:52:00;2.20;;;2.10;;
15096;SDS011;7649;52.084;7.478;2023-07-28T14:54:30;3.17;;;2.28;;
15096;SDS011;7649;52.084;7.478;2023-07-28T14:56:58;3.05;;;2.50;;
15096;SDS011;7649;52.084;7.478;2023-07-28T14:59:26;2.15;;;1.95;;
15096;SDS011;7649;52.084;7.478;2023-07-28T15:01:55;3.33;;;2.42;;
15096;SDS011;7649;52.084;7.478;2023-07-28T15:04:23;2.60;;;2.40;;
15096;SDS011;7649;52.084;7.478;2023-07-28T15:06:51;2.63;;;2.53;;
15096;SDS011;7649;52.084;7.478;2023-07-28T15:09:20;2.30;;;2.20;;
15096;SDS011;7649;52.084;7.478;2023-07-28T15:11:53;3.00;;;2.20;;